Torm Helene — 9V3900 — position and weather

sailwx.info

Track history (hours):
 
Tides and Currents Weather Stations Pressure Air Temp Water Temp Dewpoint Dewpoint Depression Visibility Wind Speed Wind Dir Waves Ship Positions

Torm Helene

Last reported at 2018-Apr-27 04:49 UTC. Time now 2018-Apr-27 05:06 UTC.
Position N 06°00' E 001°14'.

Length 244 m; draft 12.9 m.

Type: Ship (hazmat cat D). MMSI: 565521000.

Date/timePositionNaut miles runAvg speedWind from/ knotsBaromVisibWave heightAir tempDewpointWater temp
2018-Apr-27 04:49N 06°00' E 001°14'0 0.0
2018-Apr-27 02:10N 06°00' E 001°14'0 0.0
2018-Apr-27 01:58N 06°00' E 001°14'0 0.1
2018-Apr-27 01:28N 06°00' E 001°14'0 0.0
2018-Apr-27 00:58N 06°00' E 001°14'0 0.1
2018-Apr-27 00:28N 06°00' E 001°14'0 0.0
2018-Apr-26 23:58N 06°00' E 001°14'0 0.0
2018-Apr-26 23:25N 06°00' E 001°14'0 0.0
2018-Apr-26 22:49N 06°00' E 001°14'0 0.2
2018-Apr-26 22:25N 06°00' E 001°14'0 0.1
2018-Apr-26 22:00N 06°00' E 001°14'1 1.6
2018-Apr-26 21:30N 06°00' E 001°13'1 2.0
2018-Apr-26 20:59N 05°59' E 001°12'1 1.7
2018-Apr-26 20:30N 05°59' E 001°12'0 0.8
2018-Apr-26 20:00N 05°58' E 001°12'0 0.4
2018-Apr-26 19:30N 05°58' E 001°12'0 0.3
2018-Apr-26 19:00N 05°58' E 001°12'6 0.3
2018-Apr-25 22:29N 06°02' E 001°16'0 0.1
2018-Apr-25 21:59N 06°02' E 001°17'0 0.1
2018-Apr-25 21:29N 06°02' E 001°17'0 0.2
2018-Apr-25 20:59N 06°02' E 001°17'0 0.0
2018-Apr-25 20:29N 06°02' E 001°17'0 0.1
2018-Apr-25 19:59N 06°02' E 001°17'0 0.0
2018-Apr-25 19:29N 06°02' E 001°17'0 0.1
2018-Apr-25 18:59N 06°02' E 001°17'0 0.1
2018-Apr-25 18:29N 06°02' E 001°17'0 0.0
2018-Apr-25 17:53N 06°02' E 001°17'3 0.5
2018-Apr-25 10:25N 05°58' E 001°16'2 2.8
2018-Apr-25 09:50N 05°58' E 001°14'0 0.0
2018-Apr-25 08:44N 05°58' E 001°14'0 0.2
2018-Apr-25 08:17N 05°58' E 001°14'0 0.1
2018-Apr-25 07:47N 05°58' E 001°14'0 0.1
2018-Apr-25 07:26N 05°58' E 001°14'0 0.1
2018-Apr-25 06:59N 05°58' E 001°14'0 0.1
2018-Apr-25 06:29N 05°58' E 001°14'0 0.0
2018-Apr-25 05:59N 05°58' E 001°14'0 0.0
2018-Apr-25 05:29N 05°58' E 001°14'0 0.0
2018-Apr-25 04:59N 05°58' E 001°14'0 0.0
2018-Apr-25 04:29N 05°58' E 001°14'0 0.1
2018-Apr-25 03:59N 05°58' E 001°14'0 0.0
2018-Apr-25 03:29N 05°58' E 001°14'0 0.0
2018-Apr-25 02:56N 05°58' E 001°14'0 0.0
2018-Apr-25 02:23N 05°58' E 001°14'0 0.0
2018-Apr-25 01:53N 05°58' E 001°14'0 0.1
2018-Apr-25 01:29N 05°58' E 001°14'0 0.0
2018-Apr-25 00:59N 05°58' E 001°14'0 0.0
2018-Apr-25 00:29N 05°58' E 001°14'0 0.1
2018-Apr-24 23:44N 05°58' E 001°14'0 0.1
2018-Apr-24 23:29N 05°58' E 001°14'0 0.0
2018-Apr-24 20:56N 05°58' E 001°14'0 0.0
2018-Apr-24 20:11N 05°58' E 001°14'0 0.0
2018-Apr-24 19:59N 05°58' E 001°14'0 0.0
2018-Apr-24 19:14N 05°58' E 001°14'0 0.0
2018-Apr-24 18:02N 05°58' E 001°14'0 0.0
2018-Apr-24 17:59N 05°58' E 001°14'0 0.0
2018-Apr-24 17:14N 05°58' E 001°14'0 0.0
2018-Apr-24 16:41N 05°58' E 001°14'0 0.0
2018-Apr-24 16:20N 05°58' E 001°14'1 0.0
2018-Apr-24 03:03N 05°58' E 001°14'0 0.0
2018-Apr-23 21:57N 05°58' E 001°14'0 0.0
2018-Apr-23 20:21N 05°58' E 001°14'0 0.1
2018-Apr-23 17:18N 05°58' E 001°14'0 0.0
2018-Apr-22 07:03N 05°58' E 001°14'0 0.0
2018-Apr-22 06:57N 05°58' E 001°14'0 0.0
2018-Apr-22 06:30N 05°58' E 001°14'0 0.0
2018-Apr-22 06:00N 05°58' E 001°14'0 0.0
2018-Apr-22 05:21N 05°58' E 001°14'0 0.0
2018-Apr-22 05:00N 05°58' E 001°14'0 0.0
2018-Apr-22 03:57N 05°58' E 001°14'0 0.0
2018-Apr-22 02:39N 05°58' E 001°14'0 0.0
2018-Apr-21 07:48N 05°58' E 001°14'0 0.0
2018-Apr-21 06:39N 05°58' E 001°14'0 0.1
2018-Apr-21 06:30N 05°58' E 001°14'0 0.1
2018-Apr-21 06:00N 05°58' E 001°14'0 0.1
2018-Apr-21 05:27N 05°58' E 001°14'0 0.1
2018-Apr-21 04:51N 05°58' E 001°14'0 0.0
2018-Apr-21 04:27N 05°58' E 001°14'0 0.1
2018-Apr-21 03:18N 05°58' E 001°14'0 0.0
2018-Apr-21 02:57N 05°58' E 001°14'0 0.1
2018-Apr-21 02:30N 05°58' E 001°14'0 0.1
2018-Apr-21 02:00N 05°58' E 001°14'0 0.0
2018-Apr-21 01:30N 05°58' E 001°14'0 0.1
2018-Apr-21 01:00N 05°58' E 001°14'0 0.0
2018-Apr-21 00:24N 05°58' E 001°14'0 0.1
2018-Apr-21 00:00N 05°58' E 001°14'0 0.0
2018-Apr-20 23:09N 05°58' E 001°14'0 0.1
2018-Apr-20 22:57N 05°58' E 001°14'0 0.0
2018-Apr-20 22:27N 05°58' E 001°14'0 0.0
2018-Apr-20 19:00N 05°58' E 001°14'0 0.0
2018-Apr-20 18:30N 05°58' E 001°14'0 0.1
2018-Apr-20 18:00N 05°58' E 001°14'0 0.1
2018-Apr-20 17:30N 05°58' E 001°14'0 0.0
2018-Apr-20 17:00N 05°58' E 001°14'0 0.0
2018-Apr-20 16:30N 05°58' E 001°14'0 0.2
2018-Apr-20 15:59N 05°58' E 001°14'0 0.2
2018-Apr-20 15:30N 05°58' E 001°14'2 0.5
2018-Apr-20 12:20N 05°59' E 001°14'3 0.4
2018-Apr-20 05:57N 05°58' E 001°16'0 0.0
2018-Apr-20 04:48N 05°58' E 001°16'0 0.0
2018-Apr-20 04:27N 05°58' E 001°16'0 0.0
2018-Apr-20 02:30N 05°58' E 001°16'0 0.0
2018-Apr-20 02:00N 05°58' E 001°16'0 0.0
2018-Apr-19 22:57N 05°58' E 001°16'0 0.0
2018-Apr-19 22:21N 05°58' E 001°16'0 0.0
2018-Apr-19 22:00N 05°58' E 001°16'0 0.0
2018-Apr-19 20:45N 05°58' E 001°16'0 0.0
2018-Apr-19 20:09N 05°58' E 001°16'0 0.1
2018-Apr-19 20:00N 05°58' E 001°16'0 0.0
2018-Apr-19 19:30N 05°58' E 001°16'0 0.0
2018-Apr-19 18:42N 05°58' E 001°16'0 0.0
2018-Apr-19 18:30N 05°58' E 001°16'0 0.0
2018-Apr-19 18:00N 05°58' E 001°16'0 0.0
2018-Apr-19 17:30N 05°58' E 001°16'0 0.0
2018-Apr-19 17:00N 05°58' E 001°16'0 0.0
2018-Apr-19 16:30N 05°58' E 001°16'0 0.0
2018-Apr-19 16:00N 05°58' E 001°16'0 0.0
2018-Apr-19 15:24N 05°58' E 001°16'0 0.0
2018-Apr-19 14:03N 05°58' E 001°16'0 0.0
2018-Apr-19 14:00N 05°58' E 001°16'0 0.0
2018-Apr-19 13:30N 05°58' E 001°16'1 0.0
2018-Apr-17 21:48N 05°59' E 001°16'  
Track history (hours):
 
Tides and Currents Weather Stations Pressure Air Temp Water Temp Dewpoint Dewpoint Depression Visibility Wind Speed Wind Dir Waves Ship Positions

Torm Helene

Last reported at 2018-Apr-27 04:49 UTC. Time now 2018-Apr-27 05:06 UTC.
Position N 06°00' E 001°14'.

Length 244 m; draft 12.9 m.

Type: Ship (hazmat cat D). MMSI: 565521000.

Date/timePositionNaut miles runAvg speedWind from/ knotsBaromVisibWave heightAir tempDewpointWater temp
2018-Apr-27 04:49N 06°00' E 001°14'0 0.0
2018-Apr-27 02:10N 06°00' E 001°14'0 0.0
2018-Apr-27 01:58N 06°00' E 001°14'0 0.1
2018-Apr-27 01:28N 06°00' E 001°14'0 0.0
2018-Apr-27 00:58N 06°00' E 001°14'0 0.1
2018-Apr-27 00:28N 06°00' E 001°14'0 0.0
2018-Apr-26 23:58N 06°00' E 001°14'0 0.0
2018-Apr-26 23:25N 06°00' E 001°14'0 0.0
2018-Apr-26 22:49N 06°00' E 001°14'0 0.2
2018-Apr-26 22:25N 06°00' E 001°14'0 0.1
2018-Apr-26 22:00N 06°00' E 001°14'1 1.6
2018-Apr-26 21:30N 06°00' E 001°13'1 2.0
2018-Apr-26 20:59N 05°59' E 001°12'1 1.7
2018-Apr-26 20:30N 05°59' E 001°12'0 0.8
2018-Apr-26 20:00N 05°58' E 001°12'0 0.4
2018-Apr-26 19:30N 05°58' E 001°12'0 0.3
2018-Apr-26 19:00N 05°58' E 001°12'6 0.3
2018-Apr-25 22:29N 06°02' E 001°16'0 0.1
2018-Apr-25 21:59N 06°02' E 001°17'0 0.1
2018-Apr-25 21:29N 06°02' E 001°17'0 0.2
2018-Apr-25 20:59N 06°02' E 001°17'0 0.0
2018-Apr-25 20:29N 06°02' E 001°17'0 0.1
2018-Apr-25 19:59N 06°02' E 001°17'0 0.0
2018-Apr-25 19:29N 06°02' E 001°17'0 0.1
2018-Apr-25 18:59N 06°02' E 001°17'0 0.1
2018-Apr-25 18:29N 06°02' E 001°17'0 0.0
2018-Apr-25 17:53N 06°02' E 001°17'3 0.5
2018-Apr-25 10:25N 05°58' E 001°16'2 2.8
2018-Apr-25 09:50N 05°58' E 001°14'0 0.0
2018-Apr-25 08:44N 05°58' E 001°14'0 0.2
2018-Apr-25 08:17N 05°58' E 001°14'0 0.1
2018-Apr-25 07:47N 05°58' E 001°14'0 0.1
2018-Apr-25 07:26N 05°58' E 001°14'0 0.1
2018-Apr-25 06:59N 05°58' E 001°14'0 0.1
2018-Apr-25 06:29N 05°58' E 001°14'0 0.0
2018-Apr-25 05:59N 05°58' E 001°14'0 0.0
2018-Apr-25 05:29N 05°58' E 001°14'0 0.0
2018-Apr-25 04:59N 05°58' E 001°14'0 0.0
2018-Apr-25 04:29N 05°58' E 001°14'0 0.1
2018-Apr-25 03:59N 05°58' E 001°14'0 0.0
2018-Apr-25 03:29N 05°58' E 001°14'0 0.0
2018-Apr-25 02:56N 05°58' E 001°14'0 0.0
2018-Apr-25 02:23N 05°58' E 001°14'0 0.0
2018-Apr-25 01:53N 05°58' E 001°14'0 0.1
2018-Apr-25 01:29N 05°58' E 001°14'0 0.0
2018-Apr-25 00:59N 05°58' E 001°14'0 0.0
2018-Apr-25 00:29N 05°58' E 001°14'0 0.1
2018-Apr-24 23:44N 05°58' E 001°14'0 0.1
2018-Apr-24 23:29N 05°58' E 001°14'0 0.0
2018-Apr-24 20:56N 05°58' E 001°14'0 0.0
2018-Apr-24 20:11N 05°58' E 001°14'0 0.0
2018-Apr-24 19:59N 05°58' E 001°14'0 0.0
2018-Apr-24 19:14N 05°58' E 001°14'0 0.0
2018-Apr-24 18:02N 05°58' E 001°14'0 0.0
2018-Apr-24 17:59N 05°58' E 001°14'0 0.0
2018-Apr-24 17:14N 05°58' E 001°14'0 0.0
2018-Apr-24 16:41N 05°58' E 001°14'0 0.0
2018-Apr-24 16:20N 05°58' E 001°14'1 0.0
2018-Apr-24 03:03N 05°58' E 001°14'0 0.0
2018-Apr-23 21:57N 05°58' E 001°14'0 0.0
2018-Apr-23 20:21N 05°58' E 001°14'0 0.1
2018-Apr-23 17:18N 05°58' E 001°14'0 0.0
2018-Apr-22 07:03N 05°58' E 001°14'0 0.0
2018-Apr-22 06:57N 05°58' E 001°14'0 0.0
2018-Apr-22 06:30N 05°58' E 001°14'0 0.0
2018-Apr-22 06:00N 05°58' E 001°14'0 0.0
2018-Apr-22 05:21N 05°58' E 001°14'0 0.0
2018-Apr-22 05:00N 05°58' E 001°14'0 0.0
2018-Apr-22 03:57N 05°58' E 001°14'0 0.0
2018-Apr-22 02:39N 05°58' E 001°14'0 0.0
2018-Apr-21 07:48N 05°58' E 001°14'0 0.0
2018-Apr-21 06:39N 05°58' E 001°14'0 0.1
2018-Apr-21 06:30N 05°58' E 001°14'0 0.1
2018-Apr-21 06:00N 05°58' E 001°14'0 0.1
2018-Apr-21 05:27N 05°58' E 001°14'0 0.1
2018-Apr-21 04:51N 05°58' E 001°14'0 0.0
2018-Apr-21 04:27N 05°58' E 001°14'0 0.1
2018-Apr-21 03:18N 05°58' E 001°14'0 0.0
2018-Apr-21 02:57N 05°58' E 001°14'0 0.1
2018-Apr-21 02:30N 05°58' E 001°14'0 0.1
2018-Apr-21 02:00N 05°58' E 001°14'0 0.0
2018-Apr-21 01:30N 05°58' E 001°14'0 0.1
2018-Apr-21 01:00N 05°58' E 001°14'0 0.0
2018-Apr-21 00:24N 05°58' E 001°14'0 0.1
2018-Apr-21 00:00N 05°58' E 001°14'0 0.0
2018-Apr-20 23:09N 05°58' E 001°14'0 0.1
2018-Apr-20 22:57N 05°58' E 001°14'0 0.0
2018-Apr-20 22:27N 05°58' E 001°14'0 0.0
2018-Apr-20 19:00N 05°58' E 001°14'0 0.0
2018-Apr-20 18:30N 05°58' E 001°14'0 0.1
2018-Apr-20 18:00N 05°58' E 001°14'0 0.1
2018-Apr-20 17:30N 05°58' E 001°14'0 0.0
2018-Apr-20 17:00N 05°58' E 001°14'0 0.0
2018-Apr-20 16:30N 05°58' E 001°14'0 0.2
2018-Apr-20 15:59N 05°58' E 001°14'0 0.2
2018-Apr-20 15:30N 05°58' E 001°14'2 0.5
2018-Apr-20 12:20N 05°59' E 001°14'3 0.4
2018-Apr-20 05:57N 05°58' E 001°16'0 0.0
2018-Apr-20 04:48N 05°58' E 001°16'0 0.0
2018-Apr-20 04:27N 05°58' E 001°16'0 0.0
2018-Apr-20 02:30N 05°58' E 001°16'0 0.0
2018-Apr-20 02:00N 05°58' E 001°16'0 0.0
2018-Apr-19 22:57N 05°58' E 001°16'0 0.0
2018-Apr-19 22:21N 05°58' E 001°16'0 0.0
2018-Apr-19 22:00N 05°58' E 001°16'0 0.0
2018-Apr-19 20:45N 05°58' E 001°16'0 0.0
2018-Apr-19 20:09N 05°58' E 001°16'0 0.1
2018-Apr-19 20:00N 05°58' E 001°16'0 0.0
2018-Apr-19 19:30N 05°58' E 001°16'0 0.0
2018-Apr-19 18:42N 05°58' E 001°16'0 0.0
2018-Apr-19 18:30N 05°58' E 001°16'0 0.0
2018-Apr-19 18:00N 05°58' E 001°16'0 0.0
2018-Apr-19 17:30N 05°58' E 001°16'0 0.0
2018-Apr-19 17:00N 05°58' E 001°16'0 0.0
2018-Apr-19 16:30N 05°58' E 001°16'0 0.0
2018-Apr-19 16:00N 05°58' E 001°16'0 0.0
2018-Apr-19 15:24N 05°58' E 001°16'0 0.0
2018-Apr-19 14:03N 05°58' E 001°16'0 0.0
2018-Apr-19 14:00N 05°58' E 001°16'0 0.0
2018-Apr-19 13:30N 05°58' E 001°16'1 0.0
2018-Apr-17 21:48N 05°59' E 001°16'  

Dump ship's entire track history